Time;durP1;ratioP1;P1;durP2;ratioP2;P2;SDS_P1;SDS_P2;PMS_P1;PMS_P2;Temp;Humidity;BMP_temperature;BMP_pressure;BME280_temperature;BME280_humidity;BME280_pressure;Samples;Min_cycle;Max_cycle;Signal;HPM_P1;HPM_P2
2021/04/06 00:00:14;;;;;;;6.63;2.13;;;;;;;;;;4957026;28;20593;-79
2021/04/06 00:02:45;;;;;;;2.23;1.70;;;;;;;;;;4926332;28;20228;-82
2021/04/06 00:05:14;;;;;;;4.90;2.13;;;;;;;;;;4922900;28;20232;-80
2021/04/06 00:07:43;;;;;;;5.50;2.07;;;;;;;;;;4923688;29;20236;-81
2021/04/06 00:10:16;;;;;;;4.23;2.23;;;;;;;;;;5002239;28;20238;-81
2021/04/06 00:12:44;;;;;;;4.27;1.83;;;;;;;;;;4926470;28;20315;-81
2021/04/06 00:15:13;;;;;;;3.40;1.70;;;;;;;;;;4927992;28;20232;-81
2021/04/06 00:17:44;;;;;;;4.23;1.70;;;;;;;;;;4915510;28;20246;-80
2021/04/06 00:20:13;;;;;;;3.87;1.87;;;;;;;;;;4924507;28;20266;-81
2021/04/06 00:22:42;;;;;;;3.80;1.93;;;;;;;;;;4943648;28;20238;-79
2021/04/06 00:25:13;;;;;;;3.40;1.80;;;;;;;;;;4951484;28;20717;-79
2021/04/06 00:27:44;;;;;;;5.70;1.60;;;;;;;;;;4921575;28;20612;-80
2021/04/06 00:30:14;;;;;;;3.83;1.80;;;;;;;;;;5017448;28;20227;-79
2021/04/06 00:32:42;;;;;;;2.57;1.50;;;;;;;;;;5054652;28;20302;-79
2021/04/06 00:35:27;;;;;;;3.57;1.60;;;;;;;;;;4931937;28;20227;-79
2021/04/06 00:37:57;;;;;;;2.97;1.60;;;;;;;;;;5027239;28;20230;-80
2021/04/06 00:40:27;;;;;;;2.90;1.50;;;;;;;;;;5059670;28;20223;-84
2021/04/06 00:42:59;;;;;;;2.53;1.60;;;;;;;;;;5055017;28;20235;-80
2021/04/06 00:45:27;;;;;;;3.60;1.87;;;;;;;;;;5057947;28;20611;-80
2021/04/06 00:47:58;;;;;;;5.43;2.23;;;;;;;;;;5051616;28;20223;-82
2021/04/06 00:50:32;;;;;;;5.00;1.73;;;;;;;;;;5056817;28;20238;-79
2021/04/06 00:53:01;;;;;;;3.50;1.50;;;;;;;;;;5059326;28;20222;-79
2021/04/06 00:55:34;;;;;;;5.80;1.70;;;;;;;;;;4936176;28;20231;-80
2021/04/06 00:58:12;;;;;;;3.00;1.73;;;;;;;;;;5022148;28;20611;-81
2021/04/06 01:00:40;;;;;;;3.03;1.67;;;;;;;;;;4952405;28;20241;-79
2021/04/06 01:03:11;;;;;;;3.87;1.50;;;;;;;;;;4958634;28;20231;-79
2021/04/06 01:06:05;;;;;;;3.83;1.70;;;;;;;;;;4945946;28;20227;-79
2021/04/06 01:08:37;;;;;;;3.03;1.60;;;;;;;;;;4962145;28;20232;-80
2021/04/06 01:11:06;;;;;;;2.87;1.70;;;;;;;;;;4986309;28;20235;-80
2021/04/06 01:13:34;;;;;;;3.63;1.60;;;;;;;;;;4934136;28;20231;-83
2021/04/06 01:16:02;;;;;;;4.40;1.50;;;;;;;;;;4947588;28;20242;-81
2021/04/06 01:18:30;;;;;;;3.07;1.70;;;;;;;;;;4946827;28;20230;-81
2021/04/06 01:21:06;;;;;;;2.90;1.83;;;;;;;;;;4952803;28;20236;-79
2021/04/06 01:23:35;;;;;;;3.57;1.80;;;;;;;;;;4939184;28;20245;-80
2021/04/06 01:26:10;;;;;;;3.17;1.60;;;;;;;;;;4936706;28;20644;-80
2021/04/06 01:28:38;;;;;;;3.27;1.60;;;;;;;;;;4951197;28;20865;-79
2021/04/06 01:31:07;;;;;;;2.90;1.50;;;;;;;;;;4999405;28;20615;-79
2021/04/06 01:33:36;;;;;;;4.40;1.60;;;;;;;;;;5066895;28;20234;-79
2021/04/06 01:36:07;;;;;;;1.83;1.23;;;;;;;;;;5055249;28;20227;-79
2021/04/06 01:38:38;;;;;;;3.07;1.90;;;;;;;;;;5021849;28;20227;-79
2021/04/06 01:41:06;;;;;;;2.77;1.27;;;;;;;;;;4982114;28;20231;-81
2021/04/06 01:43:35;;;;;;;2.80;1.40;;;;;;;;;;4970175;28;20413;-80
2021/04/06 01:46:13;;;;;;;2.47;1.47;;;;;;;;;;4970427;28;20231;-79
2021/04/06 01:48:41;;;;;;;3.00;1.70;;;;;;;;;;5008723;28;20234;-80
2021/04/06 01:51:09;;;;;;;2.83;1.40;;;;;;;;;;4978088;28;20235;-80
2021/04/06 01:53:38;;;;;;;2.63;1.50;;;;;;;;;;4918118;28;20240;-79
2021/04/06 01:56:09;;;;;;;3.37;1.90;;;;;;;;;;4941634;28;20227;-80
2021/04/06 01:58:38;;;;;;;5.47;1.73;;;;;;;;;;4942377;28;20242;-80
2021/04/06 02:01:14;;;;;;;3.43;1.70;;;;;;;;;;4958391;28;20227;-80
2021/04/06 02:03:46;;;;;;;2.87;1.63;;;;;;;;;;4971615;28;20237;-79
2021/04/06 02:06:15;;;;;;;2.07;1.60;;;;;;;;;;4940856;28;20611;-79
2021/04/06 02:08:49;;;;;;;3.00;2.13;;;;;;;;;;4936846;28;20227;-79
2021/04/06 02:11:19;;;;;;;3.67;1.60;;;;;;;;;;4998224;28;20236;-81
2021/04/06 02:13:46;;;;;;;4.83;1.53;;;;;;;;;;5032956;28;20228;-79
2021/04/06 02:16:14;;;;;;;2.80;1.47;;;;;;;;;;4956631;28;20227;-79
2021/04/06 02:18:41;;;;;;;3.20;1.70;;;;;;;;;;4924975;28;20319;-79
2021/04/06 02:21:09;;;;;;;2.20;1.60;;;;;;;;;;4933652;28;20236;-79
2021/04/06 02:23:42;;;;;;;4.53;1.80;;;;;;;;;;4933806;28;20236;-81
2021/04/06 02:26:13;;;;;;;4.40;1.90;;;;;;;;;;4946894;28;20707;-79
2021/04/06 02:28:41;;;;;;;3.17;1.60;;;;;;;;;;4980474;28;20247;-80
2021/04/06 02:31:09;;;;;;;7.03;1.47;;;;;;;;;;4937628;28;20235;-80
2021/04/06 02:33:38;;;;;;;3.53;1.60;;;;;;;;;;4937005;28;20236;-80
2021/04/06 02:36:09;;;;;;;2.53;1.50;;;;;;;;;;4934121;28;20222;-81
2021/04/06 02:38:40;;;;;;;2.90;1.70;;;;;;;;;;4948148;28;20224;-80
2021/04/06 02:41:18;;;;;;;5.57;2.00;;;;;;;;;;4945784;28;20230;-79
2021/04/06 02:43:49;;;;;;;4.63;1.63;;;;;;;;;;4949309;28;20230;-81
2021/04/06 02:46:19;;;;;;;2.37;1.60;;;;;;;;;;4944698;28;20599;-80
2021/04/06 02:48:50;;;;;;;1.87;1.57;;;;;;;;;;4949879;28;20237;-79
2021/04/06 02:51:18;;;;;;;4.17;1.43;;;;;;;;;;4947718;28;20238;-79
2021/04/06 02:53:48;;;;;;;3.77;1.57;;;;;;;;;;4929907;28;20230;-80
2021/04/06 02:56:30;;;;;;;2.47;1.60;;;;;;;;;;4950943;28;20236;-79
2021/04/06 02:59:17;;;;;;;4.47;1.57;;;;;;;;;;4935289;28;20230;-79
2021/04/06 03:01:45;;;;;;;2.87;1.50;;;;;;;;;;4973181;28;20223;-79
2021/04/06 03:04:21;;;;;;;1.97;1.70;;;;;;;;;;4925456;28;20223;-79
2021/04/06 03:06:50;;;;;;;3.20;1.70;;;;;;;;;;4927899;28;20246;-80
2021/04/06 03:09:19;;;;;;;2.27;1.57;;;;;;;;;;4921564;28;20246;-78
2021/04/06 03:11:48;;;;;;;2.67;1.33;;;;;;;;;;4933514;28;20238;-80
2021/04/06 03:14:19;;;;;;;4.60;1.67;;;;;;;;;;4920365;28;20508;-78
2021/04/06 03:16:48;;;;;;;4.87;1.90;;;;;;;;;;4913268;28;20232;-79
2021/04/06 03:19:15;;;;;;;3.70;1.97;;;;;;;;;;4932462;28;20233;-81
2021/04/06 03:21:46;;;;;;;3.37;1.80;;;;;;;;;;4931476;28;20282;-79
2021/04/06 03:24:14;;;;;;;4.23;1.90;;;;;;;;;;4926002;28;20251;-79
2021/04/06 03:26:41;;;;;;;1.83;1.70;;;;;;;;;;4946036;28;20644;-79
2021/04/06 03:29:11;;;;;;;3.93;1.50;;;;;;;;;;4915388;28;20241;-78
2021/04/06 03:31:38;;;;;;;3.77;1.53;;;;;;;;;;4910635;28;20265;-78
2021/04/06 03:34:06;;;;;;;2.53;1.90;;;;;;;;;;4918596;28;20229;-79
2021/04/06 03:36:34;;;;;;;6.27;1.90;;;;;;;;;;4950094;28;20238;-77
2021/04/06 03:39:05;;;;;;;2.20;1.70;;;;;;;;;;4953571;28;20235;-78
2021/04/06 03:41:34;;;;;;;2.57;1.60;;;;;;;;;;4936049;28;20368;-78
2021/04/06 03:44:06;;;;;;;2.77;1.70;;;;;;;;;;4940834;28;20247;-79
2021/04/06 03:46:36;;;;;;;4.07;2.03;;;;;;;;;;4932627;28;20245;-78
2021/04/06 03:49:22;;;;;;;4.13;1.80;;;;;;;;;;4940746;28;20230;-79
2021/04/06 03:51:52;;;;;;;4.60;2.27;;;;;;;;;;4927259;28;20236;-79
2021/04/06 03:54:39;;;;;;;3.37;1.90;;;;;;;;;;4998805;28;20230;-78
2021/04/06 03:57:35;;;;;;;4.67;2.00;;;;;;;;;;4934381;28;20234;-79
2021/04/06 04:00:07;;;;;;;3.43;2.10;;;;;;;;;;4921779;28;20710;-79
2021/04/06 04:02:36;;;;;;;5.03;2.40;;;;;;;;;;4919196;28;20238;-78
2021/04/06 04:05:05;;;;;;;4.80;2.20;;;;;;;;;;4950698;28;20227;-78
2021/04/06 04:07:33;;;;;;;6.13;2.90;;;;;;;;;;4935601;28;20235;-79
2021/04/06 04:10:01;;;;;;;2.70;2.00;;;;;;;;;;4940646;28;20219;-80
2021/04/06 04:12:28;;;;;;;4.73;2.30;;;;;;;;;;5010553;28;20260;-79
2021/04/06 04:14:58;;;;;;;3.87;2.27;;;;;;;;;;4948688;28;20243;-80
2021/04/06 04:17:25;;;;;;;3.80;2.60;;;;;;;;;;5013850;28;20508;-79
2021/04/06 04:19:54;;;;;;;4.53;2.40;;;;;;;;;;4937400;28;20233;-79
2021/04/06 04:22:22;;;;;;;3.83;2.27;;;;;;;;;;4941180;28;20230;-79
2021/04/06 04:24:50;;;;;;;4.60;2.53;;;;;;;;;;4926166;28;20252;-79
2021/04/06 04:27:17;;;;;;;4.57;2.50;;;;;;;;;;4915013;28;20243;-79
2021/04/06 04:29:45;;;;;;;4.70;2.50;;;;;;;;;;4915072;28;20232;-79
2021/04/06 04:32:13;;;;;;;3.13;2.20;;;;;;;;;;4931778;28;20247;-79
2021/04/06 04:34:41;;;;;;;2.87;2.20;;;;;;;;;;4919889;28;20242;-79
2021/04/06 04:37:09;;;;;;;4.83;2.30;;;;;;;;;;4940982;28;20242;-81
2021/04/06 04:39:40;;;;;;;3.87;2.30;;;;;;;;;;4950116;28;20234;-78
2021/04/06 04:42:27;;;;;;;3.70;2.90;;;;;;;;;;4924476;28;20235;-79
2021/04/06 04:44:55;;;;;;;3.90;2.40;;;;;;;;;;4931857;28;20789;-79
2021/04/06 04:47:23;;;;;;;2.83;2.50;;;;;;;;;;4925742;28;20239;-79
2021/04/06 04:49:50;;;;;;;3.60;2.27;;;;;;;;;;4933695;28;20235;-81
2021/04/06 04:52:19;;;;;;;5.47;2.83;;;;;;;;;;4907721;28;20240;-79
2021/04/06 04:54:46;;;;;;;4.07;3.17;;;;;;;;;;4916121;28;20241;-79
2021/04/06 04:57:14;;;;;;;6.47;3.20;;;;;;;;;;4927464;28;20253;-79
2021/04/06 04:59:42;;;;;;;6.43;3.40;;;;;;;;;;4917187;28;20232;-78
2021/04/06 05:02:09;;;;;;;5.03;3.00;;;;;;;;;;4944098;28;20231;-80
2021/04/06 05:04:37;;;;;;;6.27;2.77;;;;;;;;;;4930790;28;20231;-78
2021/04/06 05:07:04;;;;;;;3.77;2.87;;;;;;;;;;4932159;28;20236;-79
2021/04/06 05:09:33;;;;;;;7.97;3.20;;;;;;;;;;4940256;28;20240;-79
2021/04/06 05:12:01;;;;;;;3.77;2.63;;;;;;;;;;4915060;28;20241;-79
2021/04/06 05:14:28;;;;;;;4.30;2.80;;;;;;;;;;4925734;28;20240;-78
2021/04/06 05:16:56;;;;;;;4.40;2.90;;;;;;;;;;4928670;28;20234;-78
2021/04/06 05:19:23;;;;;;;5.13;3.20;;;;;;;;;;4925480;28;20642;-79
2021/04/06 05:21:51;;;;;;;4.00;2.80;;;;;;;;;;4926162;28;20731;-79
2021/04/06 05:24:18;;;;;;;4.90;3.33;;;;;;;;;;4933863;28;20220;-79
2021/04/06 05:26:47;;;;;;;5.77;2.67;;;;;;;;;;4927833;28;20243;-79
2021/04/06 05:29:15;;;;;;;5.10;3.33;;;;;;;;;;4924263;28;20244;-80
2021/04/06 05:31:43;;;;;;;5.47;2.70;;;;;;;;;;4926330;28;20258;-80
2021/04/06 05:34:11;;;;;;;4.50;2.80;;;;;;;;;;4925931;28;20237;-79
2021/04/06 05:36:38;;;;;;;5.43;3.40;;;;;;;;;;4938638;28;20285;-79
2021/04/06 05:39:07;;;;;;;6.20;3.13;;;;;;;;;;4966770;28;20608;-79
2021/04/06 05:41:35;;;;;;;4.63;3.03;;;;;;;;;;4912774;28;20241;-79
2021/04/06 05:44:04;;;;;;;4.27;3.40;;;;;;;;;;4942724;28;20230;-78
2021/04/06 05:46:36;;;;;;;9.73;3.77;;;;;;;;;;4935160;28;20704;-79
2021/04/06 05:49:09;;;;;;;6.07;4.10;;;;;;;;;;4933219;28;20897;-79
2021/04/06 05:51:38;;;;;;;5.83;3.77;;;;;;;;;;4913602;28;20257;-79
2021/04/06 05:54:06;;;;;;;5.53;3.23;;;;;;;;;;4898696;28;20234;-79
2021/04/06 05:56:34;;;;;;;7.20;3.27;;;;;;;;;;4922695;28;20242;-79
2021/04/06 05:59:03;;;;;;;6.63;3.50;;;;;;;;;;4919901;28;20239;-80
2021/04/06 06:01:32;;;;;;;6.83;4.17;;;;;;;;;;4945711;28;20243;-81
2021/04/06 06:04:01;;;;;;;7.20;3.60;;;;;;;;;;4917842;28;20507;-79
2021/04/06 06:06:29;;;;;;;6.23;3.80;;;;;;;;;;4925321;28;20238;-79
2021/04/06 06:08:58;;;;;;;6.60;3.73;;;;;;;;;;4932405;28;20235;-78
2021/04/06 06:11:26;;;;;;;6.77;3.80;;;;;;;;;;4940771;28;20243;-80
2021/04/06 06:13:54;;;;;;;9.27;4.40;;;;;;;;;;4928682;28;20597;-78
2021/04/06 06:16:26;;;;;;;8.70;4.40;;;;;;;;;;4922357;28;20232;-79
2021/04/06 06:18:58;;;;;;;9.97;4.30;;;;;;;;;;4946208;28;20242;-79
2021/04/06 06:21:41;;;;;;;7.10;3.93;;;;;;;;;;4926082;28;20234;-79
2021/04/06 06:24:10;;;;;;;7.93;4.63;;;;;;;;;;4974839;28;20215;-80
2021/04/06 06:26:38;;;;;;;6.73;4.07;;;;;;;;;;4990254;28;20234;-80
2021/04/06 06:29:10;;;;;;;6.50;4.83;;;;;;;;;;4957776;28;20227;-79
2021/04/06 06:31:43;;;;;;;8.07;4.10;;;;;;;;;;4951752;28;20231;-79
2021/04/06 06:34:34;;;;;;;6.23;3.70;;;;;;;;;;4942765;28;20230;-80
2021/04/06 06:37:12;;;;;;;7.80;3.93;;;;;;;;;;4934608;28;20260;-79
2021/04/06 06:39:47;;;;;;;8.50;4.43;;;;;;;;;;4944028;28;20234;-79
2021/04/06 06:42:19;;;;;;;8.13;4.10;;;;;;;;;;4964896;28;20219;-79
2021/04/06 06:44:47;;;;;;;6.20;3.40;;;;;;;;;;5043096;28;20207;-82
2021/04/06 06:47:35;;;;;;;7.73;4.10;;;;;;;;;;5068648;28;20242;-78
2021/04/06 06:50:11;;;;;;;7.50;3.80;;;;;;;;;;5030717;28;20635;-80
2021/04/06 06:52:40;;;;;;;4.97;3.60;;;;;;;;;;5042187;28;20353;-78
2021/04/06 06:55:19;;;;;;;7.07;3.70;;;;;;;;;;5039652;28;20230;-79
2021/04/06 06:57:48;;;;;;;6.77;3.90;;;;;;;;;;5040597;28;20219;-79
2021/04/06 07:00:17;;;;;;;6.33;3.97;;;;;;;;;;5053841;28;20231;-80
2021/04/06 07:02:46;;;;;;;9.30;3.80;;;;;;;;;;5042262;28;20231;-79
2021/04/06 07:05:21;;;;;;;5.73;3.53;;;;;;;;;;5032757;28;20250;-79
2021/04/06 07:07:54;;;;;;;3.73;3.43;;;;;;;;;;5046740;28;20601;-79
2021/04/06 07:10:24;;;;;;;6.53;3.67;;;;;;;;;;5028774;28;20599;-79
2021/04/06 07:12:59;;;;;;;6.73;4.00;;;;;;;;;;5046120;28;20241;-80
2021/04/06 07:15:27;;;;;;;6.73;3.97;;;;;;;;;;4983381;28;20226;-80
2021/04/06 07:18:00;;;;;;;5.27;3.93;;;;;;;;;;4982324;28;20235;-79
2021/04/06 07:20:29;;;;;;;7.93;3.47;;;;;;;;;;4931401;28;20242;-79
2021/04/06 07:22:59;;;;;;;5.70;3.30;;;;;;;;;;4968329;28;20242;-79
2021/04/06 07:25:27;;;;;;;5.73;3.33;;;;;;;;;;4933366;28;20730;-80
2021/04/06 07:27:56;;;;;;;5.23;3.40;;;;;;;;;;4929260;28;20393;-79
2021/04/06 07:30:25;;;;;;;8.83;3.73;;;;;;;;;;4925471;28;20232;-80
2021/04/06 07:32:53;;;;;;;5.43;3.20;;;;;;;;;;4914598;28;20252;-79
2021/04/06 07:35:21;;;;;;;4.27;3.20;;;;;;;;;;4947682;28;20226;-81
2021/04/06 07:37:49;;;;;;;5.53;3.37;;;;;;;;;;4923456;28;20228;-80
2021/04/06 07:40:19;;;;;;;4.80;3.50;;;;;;;;;;4919490;28;20239;-78
2021/04/06 07:42:48;;;;;;;6.07;3.90;;;;;;;;;;4931911;28;20242;-79
2021/04/06 07:45:37;;;;;;;6.93;3.63;;;;;;;;;;4929763;28;20227;-79
2021/04/06 07:48:06;;;;;;;6.87;3.20;;;;;;;;;;4930083;28;20236;-83
2021/04/06 07:50:36;;;;;;;5.07;3.30;;;;;;;;;;4933955;28;20243;-80
2021/04/06 07:53:26;;;;;;;4.33;2.90;;;;;;;;;;4934265;28;20230;-79
2021/04/06 07:55:54;;;;;;;6.33;2.97;;;;;;;;;;4924302;28;20231;-80
2021/04/06 07:58:47;;;;;;;5.57;2.87;;;;;;;;;;4911554;28;20613;-79
2021/04/06 08:01:17;;;;;;;3.63;2.90;;;;;;;;;;4946340;28;20239;-82
2021/04/06 08:04:05;;;;;;;6.00;3.00;;;;;;;;;;4911211;28;20229;-81
2021/04/06 08:06:44;;;;;;;3.33;2.33;;;;;;;;;;4937494;28;20228;-81
2021/04/06 08:09:45;;;;;;;4.97;2.70;;;;;;;;;;4919960;28;20231;-80
2021/04/06 08:12:15;;;;;;;8.63;3.10;;;;;;;;;;4969571;28;20245;-79
2021/04/06 08:14:44;;;;;;;5.03;2.33;;;;;;;;;;4952914;28;20744;-80
2021/04/06 08:26:32;;;;;;;3.23;1.70;;;;;;;;;;4958347;28;20272;-79
2021/04/06 08:29:27;;;;;;;6.87;2.10;;;;;;;;;;4929669;28;20238;-80
2021/04/06 08:32:13;;;;;;;4.83;2.10;;;;;;;;;;4915181;28;20226;-82
2021/04/06 08:34:51;;;;;;;3.80;1.90;;;;;;;;;;4943312;28;20225;-79
2021/04/06 08:37:21;;;;;;;4.60;2.63;;;;;;;;;;4992706;28;20237;-78
2021/04/06 08:39:49;;;;;;;7.03;3.77;;;;;;;;;;4937654;28;20605;-78
2021/04/06 08:42:17;;;;;;;5.17;2.87;;;;;;;;;;4932490;28;20250;-79
2021/04/06 08:44:48;;;;;;;3.57;1.80;;;;;;;;;;4952286;28;20235;-79
2021/04/06 08:47:37;;;;;;;3.37;1.80;;;;;;;;;;4938420;28;20242;-80
2021/04/06 08:50:07;;;;;;;2.60;1.57;;;;;;;;;;4916257;28;20241;-80
2021/04/06 08:52:35;;;;;;;3.00;1.50;;;;;;;;;;4962313;28;20912;-79
2021/04/06 08:55:08;;;;;;;4.67;1.73;;;;;;;;;;4908158;28;20231;-80
2021/04/06 08:57:36;;;;;;;4.17;1.60;;;;;;;;;;4899886;28;20235;-79
2021/04/06 09:00:12;;;;;;;5.27;2.00;;;;;;;;;;4895736;28;21404;-80
2021/04/06 09:02:41;;;;;;;3.30;1.60;;;;;;;;;;4918070;28;20218;-79
2021/04/06 09:05:10;;;;;;;3.27;1.70;;;;;;;;;;4886702;28;20247;-81
2021/04/06 09:07:39;;;;;;;3.03;1.83;;;;;;;;;;4894272;28;20236;-80
2021/04/06 09:10:10;;;;;;;3.20;1.60;;;;;;;;;;4926518;28;20619;-81
2021/04/06 09:12:40;;;;;;;4.10;1.73;;;;;;;;;;4908835;28;20235;-85
2021/04/06 09:15:10;;;;;;;7.63;2.40;;;;;;;;;;4952832;28;20232;-78
2021/04/06 09:17:40;;;;;;;2.97;1.43;;;;;;;;;;4920145;28;20229;-79
2021/04/06 09:20:09;;;;;;;8.27;2.37;;;;;;;;;;4937797;28;20247;-81
2021/04/06 09:22:37;;;;;;;5.37;2.00;;;;;;;;;;4931727;28;20713;-82
2021/04/06 09:25:17;;;;;;;3.00;1.80;;;;;;;;;;4910019;28;20821;-80
2021/04/06 09:27:54;;;;;;;4.13;1.40;;;;;;;;;;4947208;28;20224;-79
2021/04/06 09:30:32;;;;;;;2.77;1.57;;;;;;;;;;4923962;28;20232;-79
2021/04/06 09:33:09;;;;;;;3.70;1.87;;;;;;;;;;4931040;28;20242;-80
2021/04/06 09:35:37;;;;;;;3.73;1.70;;;;;;;;;;4908251;28;20236;-79
2021/04/06 09:38:05;;;;;;;3.90;1.73;;;;;;;;;;4967306;28;20721;-80
2021/04/06 09:40:34;;;;;;;3.23;1.67;;;;;;;;;;4903602;28;20315;-81
2021/04/06 09:43:04;;;;;;;3.80;1.83;;;;;;;;;;4911919;28;20253;-81
2021/04/06 09:45:32;;;;;;;5.03;1.73;;;;;;;;;;4922239;28;20236;-83
2021/04/06 09:48:00;;;;;;;2.83;1.90;;;;;;;;;;4936303;28;20262;-79
2021/04/06 09:50:28;;;;;;;2.57;1.50;;;;;;;;;;4912669;28;20247;-84
2021/04/06 09:52:56;;;;;;;3.97;1.80;;;;;;;;;;4947532;28;20246;-78
2021/04/06 09:55:25;;;;;;;4.93;1.57;;;;;;;;;;4963560;28;20590;-80
2021/04/06 09:57:55;;;;;;;3.33;1.50;;;;;;;;;;4956936;28;20262;-79
2021/04/06 10:00:28;;;;;;;4.53;1.83;;;;;;;;;;4953085;28;20686;-79
2021/04/06 10:03:04;;;;;;;2.73;1.57;;;;;;;;;;4963920;28;20717;-79
2021/04/06 10:05:32;;;;;;;2.00;1.40;;;;;;;;;;4920933;28;20232;-82
2021/04/06 10:07:59;;;;;;;5.53;2.00;;;;;;;;;;4914761;28;20232;-79
2021/04/06 10:10:28;;;;;;;7.47;1.73;;;;;;;;;;4892008;28;20607;-80
2021/04/06 10:12:57;;;;;;;2.07;1.60;;;;;;;;;;4914759;28;20296;-80
2021/04/06 10:15:26;;;;;;;2.70;1.40;;;;;;;;;;4914848;28;20224;-79
2021/04/06 10:17:55;;;;;;;8.43;1.73;;;;;;;;;;4905807;28;20224;-79
2021/04/06 10:20:24;;;;;;;4.97;1.50;;;;;;;;;;4964799;28;20225;-80
2021/04/06 10:22:54;;;;;;;3.53;2.03;;;;;;;;;;4930623;28;20234;-85
2021/04/06 10:25:23;;;;;;;3.90;1.63;;;;;;;;;;4919482;28;20236;-80
2021/04/06 10:27:52;;;;;;;4.63;1.80;;;;;;;;;;4925046;28;20227;-81
2021/04/06 10:30:26;;;;;;;4.73;2.10;;;;;;;;;;4935379;28;20236;-83
2021/04/06 10:33:05;;;;;;;4.37;2.00;;;;;;;;;;4973859;28;20228;-80
2021/04/06 10:35:34;;;;;;;3.53;1.70;;;;;;;;;;4915184;28;20438;-81
2021/04/06 10:38:04;;;;;;;2.90;1.50;;;;;;;;;;4935024;28;20228;-80
2021/04/06 10:40:35;;;;;;;2.90;1.40;;;;;;;;;;4927783;28;20251;-81
2021/04/06 10:43:06;;;;;;;3.43;1.70;;;;;;;;;;4939147;28;20236;-80
2021/04/06 10:45:37;;;;;;;3.73;1.70;;;;;;;;;;4927059;28;20235;-80
2021/04/06 10:48:11;;;;;;;4.40;1.70;;;;;;;;;;4937346;28;20220;-80
2021/04/06 10:50:50;;;;;;;6.17;1.77;;;;;;;;;;4942285;28;20627;-80
2021/04/06 10:53:21;;;;;;;3.13;1.30;;;;;;;;;;4924094;28;20235;-81
2021/04/06 10:56:05;;;;;;;2.10;1.40;;;;;;;;;;4928773;28;20235;-80
2021/04/06 10:58:35;;;;;;;3.37;1.30;;;;;;;;;;4895370;28;20236;-79
2021/04/06 11:01:06;;;;;;;3.60;1.27;;;;;;;;;;4936938;28;20224;-79
2021/04/06 11:03:43;;;;;;;2.63;1.10;;;;;;;;;;4926872;28;20584;-79
2021/04/06 11:06:17;;;;;;;4.70;2.20;;;;;;;;;;4931982;28;20235;-79
2021/04/06 11:08:46;;;;;;;1.60;1.10;;;;;;;;;;4893145;28;20251;-83
2021/04/06 11:11:16;;;;;;;2.87;1.00;;;;;;;;;;4922422;28;20228;-80
2021/04/06 11:13:44;;;;;;;3.23;0.80;;;;;;;;;;4956281;28;20231;-79
2021/04/06 11:16:12;;;;;;;3.73;1.27;;;;;;;;;;4914046;28;20232;-81
2021/04/06 11:18:41;;;;;;;2.40;1.10;;;;;;;;;;4906074;28;20244;-81
2021/04/06 11:21:10;;;;;;;1.90;1.20;;;;;;;;;;4911550;28;20721;-81
2021/04/06 11:23:38;;;;;;;7.17;1.20;;;;;;;;;;4911168;28;20811;-82
2021/04/06 11:26:05;;;;;;;3.10;1.40;;;;;;;;;;4929463;28;20239;-80
2021/04/06 11:28:33;;;;;;;1.50;0.80;;;;;;;;;;4898306;28;20247;-83
2021/04/06 11:31:02;;;;;;;1.83;0.77;;;;;;;;;;4909679;28;20227;-82
2021/04/06 11:33:29;;;;;;;3.17;1.00;;;;;;;;;;4925638;28;20609;-80
2021/04/06 11:35:58;;;;;;;4.00;1.40;;;;;;;;;;4949188;28;20240;-81
2021/04/06 11:38:25;;;;;;;4.90;1.60;;;;;;;;;;4936612;28;20617;-78
2021/04/06 11:40:53;;;;;;;3.27;1.67;;;;;;;;;;4907386;28;20235;-79
2021/04/06 11:43:20;;;;;;;2.90;1.40;;;;;;;;;;4945686;28;20224;-85
2021/04/06 11:45:48;;;;;;;1.50;1.00;;;;;;;;;;4900490;28;20619;-82
2021/04/06 11:48:15;;;;;;;2.73;1.13;;;;;;;;;;4932418;28;21586;-82
2021/04/06 11:50:43;;;;;;;1.37;0.90;;;;;;;;;;4911514;28;20235;-82
2021/04/06 11:53:12;;;;;;;2.20;0.80;;;;;;;;;;4915888;28;20734;-81
2021/04/06 11:55:40;;;;;;;2.07;0.83;;;;;;;;;;4898734;28;20234;-80
2021/04/06 11:58:07;;;;;;;2.47;0.80;;;;;;;;;;4896245;28;20698;-80
2021/04/06 12:00:35;;;;;;;2.17;1.23;;;;;;;;;;4936537;28;20581;-80
2021/04/06 12:03:03;;;;;;;0.83;0.63;;;;;;;;;;4918067;28;20582;-81
2021/04/06 12:05:31;;;;;;;2.60;0.90;;;;;;;;;;4914711;28;20717;-80
2021/04/06 12:07:58;;;;;;;2.37;1.33;;;;;;;;;;4900522;28;20321;-79
2021/04/06 12:10:27;;;;;;;2.27;1.40;;;;;;;;;;4906938;28;20760;-79
2021/04/06 12:12:54;;;;;;;3.63;1.77;;;;;;;;;;4907178;28;20247;-80
2021/04/06 12:15:22;;;;;;;5.00;1.40;;;;;;;;;;4911285;28;20255;-79
2021/04/06 12:17:50;;;;;;;2.97;1.10;;;;;;;;;;4895931;28;20234;-78
2021/04/06 12:20:18;;;;;;;5.33;1.87;;;;;;;;;;4904149;28;20233;-79
2021/04/06 12:22:45;;;;;;;3.50;1.70;;;;;;;;;;4905759;28;20224;-79
2021/04/06 12:25:14;;;;;;;4.73;1.70;;;;;;;;;;4960343;28;20697;-82
2021/04/06 12:27:56;;;;;;;8.60;2.70;;;;;;;;;;4929321;28;20240;-81
2021/04/06 12:30:25;;;;;;;3.43;2.10;;;;;;;;;;4910493;28;20229;-80
2021/04/06 12:32:52;;;;;;;2.83;1.20;;;;;;;;;;4930019;28;20709;-79
2021/04/06 12:35:20;;;;;;;3.67;1.27;;;;;;;;;;4903455;28;20243;-79
2021/04/06 12:37:48;;;;;;;4.23;1.87;;;;;;;;;;4956458;28;20229;-78
2021/04/06 12:40:16;;;;;;;4.33;1.70;;;;;;;;;;4936911;28;20239;-79
2021/04/06 12:42:44;;;;;;;2.83;1.03;;;;;;;;;;4918268;28;20896;-79
2021/04/06 12:45:15;;;;;;;7.70;1.87;;;;;;;;;;4908742;28;20232;-80
2021/04/06 12:47:43;;;;;;;4.23;1.77;;;;;;;;;;4917230;28;20255;-78
2021/04/06 12:50:16;;;;;;;3.03;1.50;;;;;;;;;;4906870;28;20240;-80
2021/04/06 12:52:44;;;;;;;3.30;1.40;;;;;;;;;;4897038;28;20228;-78
2021/04/06 12:55:13;;;;;;;2.17;1.27;;;;;;;;;;4911298;28;20236;-78
2021/04/06 12:57:41;;;;;;;3.20;1.40;;;;;;;;;;4909727;28;20263;-80
2021/04/06 13:00:10;;;;;;;3.77;1.30;;;;;;;;;;4893847;28;20239;-80
2021/04/06 13:02:39;;;;;;;1.70;1.20;;;;;;;;;;4937279;28;20701;-82
2021/04/06 13:05:07;;;;;;;4.37;1.90;;;;;;;;;;4903537;28;20240;-80
2021/04/06 13:07:35;;;;;;;5.67;2.10;;;;;;;;;;4916146;28;20732;-81
2021/04/06 13:10:04;;;;;;;5.77;3.27;;;;;;;;;;4950646;28;20697;-79
2021/04/06 13:12:32;;;;;;;5.90;2.50;;;;;;;;;;4938154;28;20695;-80
2021/04/06 13:14:59;;;;;;;6.00;2.20;;;;;;;;;;4897260;28;20228;-80
2021/04/06 13:17:27;;;;;;;4.10;1.77;;;;;;;;;;4905542;28;20232;-79
2021/04/06 13:19:56;;;;;;;3.80;1.30;;;;;;;;;;4935215;28;20243;-81
2021/04/06 13:22:23;;;;;;;4.00;2.00;;;;;;;;;;4912465;28;20224;-79
2021/04/06 13:24:51;;;;;;;3.77;1.47;;;;;;;;;;4928081;28;20223;-80
2021/04/06 13:27:19;;;;;;;3.77;1.77;;;;;;;;;;4940500;28;20614;-82
2021/04/06 13:29:46;;;;;;;1.40;1.27;;;;;;;;;;4942188;28;20244;-80
2021/04/06 13:32:14;;;;;;;3.60;1.67;;;;;;;;;;4923985;28;20232;-81
2021/04/06 13:34:42;;;;;;;6.43;1.67;;;;;;;;;;4908614;28;20240;-80
2021/04/06 13:37:10;;;;;;;7.93;1.80;;;;;;;;;;4908741;28;20228;-79
2021/04/06 13:39:38;;;;;;;3.90;1.43;;;;;;;;;;4914215;28;20246;-82
2021/04/06 13:42:06;;;;;;;4.00;1.60;;;;;;;;;;4912851;28;20236;-80
2021/04/06 13:44:36;;;;;;;2.17;1.30;;;;;;;;;;4920713;28;20225;-82
2021/04/06 13:47:05;;;;;;;3.47;2.00;;;;;;;;;;4912487;28;20236;-81
2021/04/06 13:49:32;;;;;;;4.60;1.70;;;;;;;;;;4939630;28;20225;-80
2021/04/06 13:52:05;;;;;;;2.37;1.40;;;;;;;;;;4941811;28;20228;-83
2021/04/06 13:54:33;;;;;;;2.53;1.30;;;;;;;;;;4919344;28;20232;-79
2021/04/06 13:57:01;;;;;;;4.03;1.33;;;;;;;;;;4919058;28;20239;-78
2021/04/06 13:59:30;;;;;;;3.50;1.33;;;;;;;;;;4933415;28;20239;-79
2021/04/06 14:01:57;;;;;;;8.93;1.80;;;;;;;;;;4933617;28;20232;-80
2021/04/06 14:04:25;;;;;;;3.20;1.43;;;;;;;;;;4916821;28;20855;-82
2021/04/06 14:06:53;;;;;;;3.23;1.40;;;;;;;;;;4895682;28;20232;-82
2021/04/06 14:09:24;;;;;;;1.93;1.40;;;;;;;;;;4921931;28;20239;-82
2021/04/06 14:11:52;;;;;;;4.37;1.60;;;;;;;;;;4926212;28;20286;-78
2021/04/06 14:14:20;;;;;;;5.10;1.63;;;;;;;;;;4922144;28;20241;-82
2021/04/06 14:16:48;;;;;;;1.90;1.13;;;;;;;;;;4924396;28;20663;-80
2021/04/06 14:19:16;;;;;;;4.10;1.33;;;;;;;;;;4932469;28;20229;-81
2021/04/06 14:21:44;;;;;;;4.53;1.43;;;;;;;;;;4929765;28;20638;-81
2021/04/06 14:24:12;;;;;;;3.90;1.40;;;;;;;;;;4901949;28;20229;-81
2021/04/06 14:26:39;;;;;;;4.03;1.50;;;;;;;;;;4908959;28;20236;-82
2021/04/06 14:29:09;;;;;;;4.03;1.77;;;;;;;;;;4928514;28;20616;-83
2021/04/06 14:31:39;;;;;;;3.50;1.33;;;;;;;;;;4927628;28;20235;-84
2021/04/06 14:34:07;;;;;;;3.03;1.40;;;;;;;;;;4927365;28;20235;-79
2021/04/06 14:36:35;;;;;;;3.07;1.50;;;;;;;;;;4934055;28;20216;-82
2021/04/06 14:39:04;;;;;;;2.57;1.10;;;;;;;;;;4955622;28;20232;-82
2021/04/06 14:41:32;;;;;;;1.83;0.90;;;;;;;;;;4947324;28;20231;-81
2021/04/06 14:43:59;;;;;;;3.67;1.30;;;;;;;;;;4909013;28;20219;-81
2021/04/06 14:46:28;;;;;;;1.80;0.90;;;;;;;;;;4919335;28;20235;-82
2021/04/06 14:48:57;;;;;;;1.97;1.20;;;;;;;;;;4907436;28;20757;-82
2021/04/06 14:51:27;;;;;;;4.90;1.37;;;;;;;;;;4920905;28;20250;-79
2021/04/06 14:53:59;;;;;;;0.93;0.80;;;;;;;;;;4944032;28;20239;-82
2021/04/06 14:56:27;;;;;;;3.57;1.13;;;;;;;;;;4933454;28;20231;-83
2021/04/06 14:58:56;;;;;;;2.93;1.40;;;;;;;;;;4932384;28;20568;-81
2021/04/06 15:01:25;;;;;;;2.90;1.50;;;;;;;;;;4931271;28;20245;-82
2021/04/06 15:03:55;;;;;;;3.70;1.10;;;;;;;;;;4931474;28;20711;-81
2021/04/06 15:06:24;;;;;;;2.83;1.23;;;;;;;;;;4926150;28;20234;-80
2021/04/06 15:08:52;;;;;;;2.73;1.50;;;;;;;;;;4939954;28;20239;-83
2021/04/06 15:11:20;;;;;;;3.23;1.30;;;;;;;;;;4926417;28;20230;-80